Sint-Genesius-Rode, Belgium
Current Conditions -  °F | °C
As of 1:50 AM on Wednesday 22 Oct 2014 (Local Time) from EBBR Reporting Station
Few Clouds Few Clouds  
Wind Chill:   Ceiling: Unl
Heat Index:   Visibility: 6mi
Dew Point:   Wind: 16mph
Humidity: 71%   Direction: 270°W
Pressure: 29.97"   Gusts: NA
Location:  50.75°N, 4.36°E
Report Text: EBBR 212350Z 27014KT 9999 FEW028 08/03 Q1015 NOSIG
Loading
Personal Weather Stations






























Interactive Weather Map
Tropical Storm Tracking
New forecast layout! Learn more

10-Day Weather Forecast

Advertisements
Track Severe Weather on mobile